首页
METAR-TAF:

METAR-TAF

机场 :

埃尔森特罗, 加利福尼亚州, 美国

纬度: 32-49-30N, 经度: 115-39-38W, 海拔: 13米

当前天气观测

该预报发布于19分钟前的00:56 UTC
静风
温度 16°C
湿度 82%
气压 1019 hPa
能見度: 16.1公里
少量云层高于4000英尺
多云层高于8000英尺
多云层高于20000英尺

METAR: KNJK 080056Z 00000KT 10SM FEW040 BKN080 BKN200 16/13 A3009 RMK AO2 RAB2359E11B43E55 SLP206 P0000 T01610128

时间: 17:15 (01:15 UTC)

预报

预报有效从07日的 23点(UTC)到 08日的 23点(UTC)
风速6节,风向多变
能见度10公里或以上
少量云层高于5000英尺
多云层高于8000英尺
多云层高于25000英尺
小雨
从 08日的 0300点(UTC)
风速7节,风向西
能见度10公里或以上
散云层高于5000英尺
多云层高于8000英尺
多云层高于25000英尺
附近有阵雨
从 08日的 1200点(UTC)
风速9节,风向西
能见度10公里或以上
散云层高于8000英尺
多云层高于12000英尺
多云层高于25000英尺
成为
从 08日的 20点(UTC)到 08日的 21点(UTC)
风速20节,风向西,有时为30节阵风
能見度: 0815
散云层高于12000英尺
多云层高于25000英尺

TAF: KNJK 0723/0823 VRB06KT 9999 -RA FEW050 BKN080 BKN250 641206 QNH3005INS FM080300 26007KT 9999 VCSH SCT050 BKN080 BKN250 600000 QNH3001INS FM081200 26009KT 9999 SCT080 BKN120 BKN250 QNH2997INS BECMG 0820/0821 26020G30KT 9999 SCT120 BKN250 520009 QNH2994INS LAST NO AMDS AFT 0801 NEXT 0815 T12/0813Z T23/0823Z FS30020

超过4000个机场的气象观测和天气预报(METAR&TAF报告)。

可查询的气象台以黄色和红色小点在地图上表示。

将鼠标移到小点上方,可查看气象台名称。

然后点击查看天气观测和预报。

如需切换地图:点击带黑十字的绿色按钮放大地图;点击带横线的绿色按钮缩小地图;或者点击绿色箭头查看邻近地区的地图。


METAR-TAF: